createdAt,value
2022-11-28T00:01:43.183Z,305.35
2022-11-28T00:04:11.883Z,345.33
2022-11-28T00:06:46.067Z,422.02
2022-11-28T00:09:14.775Z,387.75
2022-11-28T00:11:44.490Z,478.88
2022-11-28T00:14:12.655Z,512.60
2022-11-28T00:16:39.831Z,435.58
2022-11-28T00:19:07.831Z,414.75
2022-11-28T00:21:35.403Z,328.88
2022-11-28T00:24:02.647Z,428.65
2022-11-28T00:26:39.968Z,430.30
2022-11-28T00:29:09.543Z,339.88
2022-11-28T00:31:42.693Z,313.90
2022-11-28T00:34:13.367Z,348.23
2022-11-28T00:36:40.519Z,412.33
2022-11-28T00:39:07.481Z,469.67
2022-11-28T00:41:35.323Z,369.25
2022-11-28T00:44:02.523Z,387.08
2022-11-28T00:46:29.897Z,508.55
2022-11-28T00:48:58.949Z,532.28
2022-11-28T00:51:29.527Z,456.83
2022-11-28T00:54:00.131Z,497.70
2022-11-28T00:56:36.827Z,368.65
2022-11-28T00:59:04.330Z,524.58
2022-11-28T01:01:36.388Z,489.95
2022-11-28T01:04:07.927Z,576.90
2022-11-28T01:06:42.684Z,385.88
2022-11-28T01:09:17.885Z,307.25
2022-11-28T01:11:46.336Z,466.13
2022-11-28T01:14:13.685Z,382.30
2022-11-28T01:16:40.774Z,440.77
2022-11-28T01:19:08.019Z,393.40
2022-11-28T01:21:36.175Z,434.80
2022-11-28T01:24:03.633Z,360.45
2022-11-28T01:26:31.470Z,422.15
2022-11-28T01:29:00.419Z,351.73
2022-11-28T01:31:29.574Z,298.75
2022-11-28T01:33:57.901Z,349.92
2022-11-28T01:36:26.594Z,403.00
2022-11-28T01:38:53.583Z,374.33
2022-11-28T01:41:25.872Z,367.48
2022-11-28T01:44:08.903Z,219.65
2022-11-28T01:46:37.018Z,251.57
2022-11-28T01:49:27.815Z,399.35
2022-11-28T01:52:08.939Z,247.57
2022-11-28T01:54:38.537Z,316.35
2022-11-28T01:57:12.434Z,330.40
2022-11-28T01:59:47.670Z,300.88
2022-11-28T02:02:42.091Z,261.05
2022-11-28T02:05:09.647Z,322.33
2022-11-28T02:07:37.976Z,256.73
2022-11-28T02:10:10.614Z,363.83
2022-11-28T02:13:25.175Z,268.35
2022-11-28T02:16:39.949Z,361.70
2022-11-28T02:19:34.006Z,316.30
2022-11-28T02:22:17.651Z,447.33
2022-11-28T02:25:36.936Z,380.85
2022-11-28T02:28:40.592Z,296.00
2022-11-28T02:35:03.467Z,340.85
2022-11-28T02:38:34.846Z,478.08
2022-11-28T02:41:28.122Z,243.95
2022-11-28T02:44:15.251Z,423.38
2022-11-28T02:47:05.761Z,212.05
2022-11-28T02:49:57.980Z,369.98
2022-11-28T02:52:53.313Z,339.90
2022-11-28T03:07:52.844Z,339.60
2022-11-28T03:10:55.676Z,178.15
2022-11-28T03:13:38.247Z,264.80
2022-11-28T03:16:39.535Z,160.93
2022-11-28T03:19:19.264Z,262.98
2022-11-28T03:22:04.701Z,268.67
2022-11-28T03:24:53.636Z,340.35
2022-11-28T03:27:23.524Z,320.73
2022-11-28T03:29:57.654Z,356.80
2022-11-28T03:32:34.563Z,310.33
2022-11-28T03:35:16.936Z,309.52
2022-11-28T03:38:20.266Z,172.87
2022-11-28T03:40:53.946Z,181.93
2022-11-28T03:43:28.867Z,171.55
2022-11-28T03:46:02.839Z,201.18
2022-11-28T03:48:40.847Z,203.98
2022-11-28T03:51:40.165Z,222.13
2022-11-28T03:54:10.659Z,200.10
2022-11-28T03:56:51.911Z,147.93
2022-11-28T03:59:30.009Z,201.82
2022-11-28T04:02:28.807Z,196.13
2022-11-28T04:04:59.881Z,224.25
2022-11-28T04:07:32.846Z,221.93
2022-11-28T04:13:20.150Z,175.00
2022-11-28T04:16:04.561Z,237.15
2022-11-28T04:18:55.379Z,208.65
2022-11-28T04:21:55.507Z,136.90
2022-11-28T04:24:29.567Z,230.52
2022-11-28T04:27:04.155Z,187.02
2022-11-28T04:29:41.227Z,208.02
2022-11-28T04:32:11.395Z,213.05
2022-11-28T04:34:44.348Z,182.88
2022-11-28T04:37:15.499Z,181.75
2022-11-28T04:39:47.304Z,177.18
2022-11-28T04:42:23.417Z,161.27
2022-11-28T04:45:02.909Z,184.13
2022-11-28T04:47:33.105Z,110.68
2022-11-28T04:50:00.490Z,228.60
2022-11-28T04:53:18.973Z,132.82
2022-11-28T04:55:55.230Z,122.85
2022-11-28T04:58:44.236Z,224.45
2022-11-28T05:01:19.952Z,171.27
2022-11-28T05:03:47.280Z,187.93
2022-11-28T05:06:29.222Z,181.32
2022-11-28T05:08:56.440Z,168.88
2022-11-28T05:11:24.159Z,190.30
2022-11-28T05:13:51.197Z,229.90
2022-11-28T05:16:18.731Z,205.00
2022-11-28T05:18:45.935Z,234.75
2022-11-28T05:21:13.275Z,174.57
2022-11-28T05:23:43.539Z,207.95
2022-11-28T05:26:20.757Z,196.75
2022-11-28T05:28:51.062Z,201.75
2022-11-28T05:31:21.196Z,180.30
2022-11-28T05:33:48.231Z,236.82
2022-11-28T05:36:16.478Z,198.02
2022-11-28T05:38:44.412Z,248.25
2022-11-28T05:41:31.116Z,175.60
2022-11-28T05:44:00.232Z,123.72
2022-11-28T05:46:28.915Z,237.50
2022-11-28T05:48:56.891Z,182.23
2022-11-28T05:51:24.266Z,137.07
2022-11-28T05:53:51.487Z,166.98
2022-11-28T05:56:23.009Z,182.52
2022-11-28T05:58:50.140Z,208.75
2022-11-28T06:01:22.283Z,205.60
2022-11-28T06:03:49.575Z,188.37
2022-11-28T06:06:18.863Z,156.82
2022-11-28T06:08:47.206Z,200.00
2022-11-28T06:11:16.008Z,156.50
2022-11-28T06:13:44.979Z,146.38
2022-11-28T06:16:15.735Z,159.38
2022-11-28T06:18:43.226Z,222.63
2022-11-28T06:21:12.292Z,174.73
2022-11-28T06:23:40.543Z,237.85
2022-11-28T06:26:16.887Z,216.13
2022-11-28T06:28:44.563Z,214.32
2022-11-28T06:31:14.789Z,184.48
2022-11-28T06:33:42.177Z,220.00
2022-11-28T06:36:11.238Z,233.25
2022-11-28T06:38:38.835Z,265.17
2022-11-28T06:41:11.663Z,216.77
2022-11-28T06:43:39.350Z,225.50
2022-11-28T06:46:15.929Z,177.15
2022-11-28T06:48:44.678Z,203.60
2022-11-28T06:51:13.265Z,247.43
2022-11-28T06:53:40.776Z,321.45
2022-11-28T06:56:19.946Z,289.83
2022-11-28T06:58:53.510Z,272.42
2022-11-28T07:01:23.248Z,238.18
2022-11-28T07:03:51.658Z,145.63
2022-11-28T07:06:19.898Z,115.35
2022-11-28T07:08:47.827Z,128.38
2022-11-28T07:11:19.709Z,159.68
2022-11-28T07:13:47.821Z,401.27
2022-11-28T07:16:21.809Z,311.00
2022-11-28T07:18:50.301Z,251.50
2022-11-28T07:21:17.916Z,264.85
2022-11-28T07:23:46.079Z,146.55
2022-11-28T07:26:15.851Z,184.02
2022-11-28T07:28:43.892Z,171.77
2022-11-28T07:31:15.453Z,127.43
2022-11-28T07:33:46.458Z,204.73
2022-11-28T07:36:23.773Z,213.38
2022-11-28T07:38:55.303Z,145.25
2022-11-28T07:41:26.464Z,129.00
2022-11-28T07:43:58.014Z,139.88
2022-11-28T07:46:26.354Z,141.75
2022-11-28T07:48:53.551Z,130.90
2022-11-28T07:51:29.020Z,159.48
2022-11-28T07:53:56.368Z,168.45
2022-11-28T07:56:39.503Z,210.63
2022-11-28T07:59:14.683Z,181.02
2022-11-28T08:01:41.880Z,299.25
2022-11-28T08:04:10.355Z,156.88
2022-11-28T08:06:42.084Z,177.23
2022-11-28T08:09:09.491Z,159.93
2022-11-28T08:11:36.815Z,141.55
2022-11-28T08:14:05.515Z,142.18
2022-11-28T08:16:33.087Z,274.15
2022-11-28T08:19:03.625Z,165.68
2022-11-28T08:21:33.201Z,139.68
2022-11-28T08:24:02.177Z,256.90
2022-11-28T08:26:32.424Z,315.90
2022-11-28T08:29:01.738Z,223.43
2022-11-28T08:31:34.604Z,200.00
2022-11-28T08:34:06.460Z,180.48
2022-11-28T08:36:33.594Z,215.40
2022-11-28T08:39:22.963Z,169.05
2022-11-28T08:41:49.878Z,157.13
2022-11-28T08:44:16.826Z,166.23
2022-11-28T08:46:44.287Z,128.70
2022-11-28T08:49:11.253Z,234.80
2022-11-28T08:51:38.303Z,196.05
2022-11-28T08:54:05.457Z,146.35
2022-11-28T08:56:32.608Z,172.00
2022-11-28T08:59:00.397Z,121.38
2022-11-28T09:01:28.004Z,351.45
2022-11-28T09:03:56.985Z,221.35
2022-11-28T09:06:25.026Z,314.00
2022-11-28T09:08:53.549Z,270.90
2022-11-28T09:11:22.730Z,206.38
2022-11-28T09:13:51.106Z,272.60
2022-11-28T09:16:18.514Z,378.85
2022-11-28T09:18:45.709Z,450.30
2022-11-28T09:21:15.273Z,530.50
2022-11-28T09:23:44.763Z,545.03
2022-11-28T09:26:16.267Z,484.17
2022-11-28T09:28:44.487Z,562.80
2022-11-28T09:31:13.853Z,498.77
2022-11-28T09:33:41.753Z,543.17
2022-11-28T09:36:15.467Z,240.93
2022-11-28T09:38:42.746Z,178.38
2022-11-28T09:41:28.276Z,260.27
2022-11-28T09:44:14.571Z,309.52
2022-11-28T09:46:44.155Z,342.52
2022-11-28T09:49:40.434Z,316.52
2022-11-28T09:52:48.958Z,480.63
2022-11-28T09:55:23.987Z,492.05
2022-11-28T09:57:53.403Z,259.02
2022-11-28T10:00:43.388Z,323.27
2022-11-28T10:03:25.810Z,316.05
2022-11-28T10:06:43.008Z,362.75
2022-11-28T10:09:27.606Z,182.55
2022-11-28T10:12:25.416Z,175.13
2022-11-28T10:15:08.720Z,163.30
2022-11-28T10:17:53.741Z,215.85
2022-11-28T10:20:34.377Z,265.70
2022-11-28T10:23:30.292Z,286.50
2022-11-28T10:26:05.740Z,262.83
2022-11-28T10:28:37.613Z,181.35
2022-11-28T10:31:19.238Z,259.48
2022-11-28T10:33:58.093Z,280.10
2022-11-28T10:37:15.709Z,231.35
2022-11-28T10:39:46.132Z,315.73
2022-11-28T10:42:52.189Z,258.52
2022-11-28T10:45:34.115Z,193.00
2022-11-28T10:48:40.317Z,212.75
2022-11-28T10:51:35.341Z,160.75
2022-11-28T10:54:31.594Z,147.32
2022-11-28T10:57:31.011Z,139.45
2022-11-28T11:00:13.493Z,161.90
2022-11-28T11:02:54.895Z,158.43
2022-11-28T11:05:28.326Z,138.68
2022-11-28T11:08:11.589Z,144.20
2022-11-28T11:11:17.611Z,149.85
2022-11-28T11:14:10.796Z,131.18
2022-11-28T11:16:59.200Z,133.13
2022-11-28T11:19:39.326Z,142.65
2022-11-28T11:22:29.217Z,135.43
2022-11-28T11:25:20.083Z,144.13
2022-11-28T11:27:52.579Z,166.38
2022-11-28T11:30:35.426Z,156.07
2022-11-28T11:33:06.210Z,154.52
2022-11-28T11:35:46.099Z,164.30
2022-11-28T11:49:31.819Z,145.15
2022-11-28T11:52:12.759Z,144.30
2022-11-28T11:55:13.060Z,133.20
2022-11-28T11:57:49.108Z,124.45
2022-11-28T12:00:22.464Z,139.02
2022-11-28T12:03:53.345Z,124.85
2022-11-28T12:06:32.785Z,128.50
2022-11-28T12:09:19.505Z,182.85
2022-11-28T12:12:01.542Z,156.93
2022-11-28T12:14:35.390Z,189.38
2022-11-28T12:17:58.575Z,155.88
2022-11-28T12:21:30.592Z,139.55
2022-11-28T12:24:22.043Z,132.55
2022-11-28T12:26:53.240Z,132.07
2022-11-28T12:29:23.297Z,142.70
2022-11-28T12:32:28.249Z,153.20
2022-11-28T12:35:47.023Z,265.90
2022-11-28T12:38:44.480Z,162.65
2022-11-28T12:41:38.587Z,174.05
2022-11-28T12:44:42.276Z,158.77
2022-11-28T12:50:25.249Z,199.13
2022-11-28T12:53:18.310Z,136.77
2022-11-28T12:56:00.203Z,121.20
2022-11-28T12:58:59.476Z,117.57
2022-11-28T13:02:25.890Z,134.68
2022-11-28T13:05:32.894Z,122.70
2022-11-28T13:08:34.575Z,114.05
2022-11-28T13:11:25.855Z,123.78
2022-11-28T13:14:28.317Z,130.57
2022-11-28T13:17:01.366Z,109.63
2022-11-28T13:22:24.500Z,117.50
2022-11-28T13:25:14.046Z,126.18
2022-11-28T13:28:05.985Z,123.28
2022-11-28T13:30:48.492Z,119.07
2022-11-28T13:33:30.562Z,126.20
2022-11-28T13:36:00.083Z,133.38
2022-11-28T13:39:08.245Z,142.77
2022-11-28T13:44:59.471Z,132.57
2022-11-28T13:47:33.489Z,136.38
2022-11-28T13:50:25.321Z,136.38
2022-11-28T13:53:24.080Z,147.18
2022-11-28T13:56:08.976Z,140.50
2022-11-28T13:58:47.734Z,147.25
2022-11-28T14:01:15.831Z,134.60
2022-11-28T14:04:15.323Z,134.27
2022-11-28T14:06:54.581Z,139.60
2022-11-28T14:09:44.689Z,139.38
2022-11-28T14:12:57.686Z,149.60
2022-11-28T14:16:08.008Z,162.60
2022-11-28T14:19:12.815Z,168.23
2022-11-28T14:21:56.023Z,192.50
2022-11-28T14:25:10.975Z,169.60
2022-11-28T14:27:47.288Z,221.75
2022-11-28T14:30:39.625Z,206.73
2022-11-28T14:33:39.374Z,213.50
2022-11-28T14:36:34.131Z,199.98
2022-11-28T14:39:19.605Z,201.70
2022-11-28T14:42:05.333Z,201.65
2022-11-28T14:44:54.745Z,188.90
2022-11-28T14:47:21.735Z,218.75
2022-11-28T14:49:49.581Z,242.45
2022-11-28T14:52:41.195Z,240.77
2022-11-28T14:55:08.446Z,182.63
2022-11-28T14:58:00.667Z,252.50
2022-11-28T15:00:53.634Z,217.10
2022-11-28T15:03:36.035Z,208.27
2022-11-28T15:06:19.962Z,222.25
2022-11-28T15:09:04.415Z,202.48
2022-11-28T15:12:08.523Z,201.90
2022-11-28T15:14:36.831Z,210.85
2022-11-28T15:17:10.616Z,190.82
2022-11-28T15:19:44.301Z,195.38
2022-11-28T15:22:33.549Z,187.77
2022-11-28T15:25:00.604Z,204.10
2022-11-28T15:27:28.636Z,184.73
2022-11-28T15:30:01.562Z,187.55
2022-11-28T15:32:31.733Z,187.93
2022-11-28T15:35:09.372Z,199.27
2022-11-28T15:37:56.639Z,182.23
2022-11-28T15:40:33.084Z,186.98
2022-11-28T15:43:02.074Z,188.68
2022-11-28T15:45:38.071Z,174.27
2022-11-28T15:48:05.168Z,182.95
2022-11-28T15:50:34.511Z,187.02
2022-11-28T15:53:18.027Z,219.95
2022-11-28T15:55:45.857Z,199.48
2022-11-28T15:58:28.589Z,212.90
2022-11-28T16:01:27.111Z,191.23
2022-11-28T16:04:13.732Z,191.25
2022-11-28T16:06:44.623Z,207.68
2022-11-28T16:09:17.799Z,208.43
2022-11-28T16:11:51.311Z,227.70
2022-11-28T16:14:27.725Z,202.40
2022-11-28T16:16:56.939Z,172.32
2022-11-28T16:19:37.452Z,169.10
2022-11-28T16:22:17.191Z,160.52
2022-11-28T16:24:55.463Z,185.68
2022-11-28T16:27:29.325Z,183.00
2022-11-28T16:29:56.966Z,156.88
2022-11-28T16:32:32.237Z,161.45
2022-11-28T16:35:02.479Z,161.23
2022-11-28T16:37:32.935Z,153.80
2022-11-28T16:40:23.250Z,168.45
2022-11-28T16:42:55.379Z,171.32
2022-11-28T16:45:32.767Z,168.83
2022-11-28T16:48:13.654Z,152.85
2022-11-28T16:51:07.465Z,156.77
2022-11-28T16:53:46.507Z,151.65
2022-11-28T16:56:31.580Z,147.90
2022-11-28T16:59:18.847Z,143.27
2022-11-28T17:01:53.873Z,139.35
2022-11-28T17:04:23.913Z,143.32
2022-11-28T17:06:53.481Z,139.77
2022-11-28T17:09:20.667Z,137.85
2022-11-28T17:12:11.643Z,130.05
2022-11-28T17:14:39.216Z,132.23
2022-11-28T17:17:18.149Z,129.00
2022-11-28T17:19:45.912Z,132.32
2022-11-28T17:22:17.912Z,120.50
2022-11-28T17:24:46.745Z,134.82
2022-11-28T17:27:14.759Z,129.25
2022-11-28T17:29:42.696Z,123.38
2022-11-28T17:32:13.569Z,124.53
2022-11-28T17:34:42.146Z,124.53
2022-11-28T17:37:10.070Z,124.80
2022-11-28T17:39:37.261Z,130.68
2022-11-28T17:42:05.444Z,122.47
2022-11-28T17:44:36.156Z,121.35
2022-11-28T17:47:04.224Z,121.18
2022-11-28T17:49:31.734Z,110.95
2022-11-28T17:51:58.731Z,124.03
2022-11-28T17:54:27.178Z,118.22
2022-11-28T17:56:54.685Z,113.05
2022-11-28T17:59:24.298Z,112.82
2022-11-28T18:01:51.547Z,118.60
2022-11-28T18:04:19.465Z,118.90
2022-11-28T18:06:47.717Z,123.70
2022-11-28T18:09:15.339Z,118.43
2022-11-28T18:11:46.366Z,112.22
2022-11-28T18:14:14.408Z,108.28
2022-11-28T18:16:43.760Z,111.95
2022-11-28T18:19:11.186Z,114.13
2022-11-28T18:21:38.210Z,105.32
2022-11-28T18:24:05.535Z,119.68
2022-11-28T18:26:32.652Z,110.57
2022-11-28T18:28:59.608Z,110.20
2022-11-28T18:31:29.367Z,113.75
2022-11-28T18:34:02.213Z,122.15
2022-11-28T18:36:31.512Z,113.43
2022-11-28T18:39:06.597Z,111.85
2022-11-28T18:41:34.006Z,109.15
2022-11-28T18:44:04.718Z,112.30
2022-11-28T18:46:33.035Z,124.72
2022-11-28T18:49:00.476Z,117.55
2022-11-28T18:51:32.288Z,100.40
2022-11-28T18:54:01.696Z,110.88
2022-11-28T18:56:29.911Z,124.43
2022-11-28T18:58:59.278Z,121.30
2022-11-28T19:01:30.544Z,120.15
2022-11-28T19:04:07.952Z,128.10
2022-11-28T19:06:36.822Z,123.70
2022-11-28T19:09:09.322Z,121.00
2022-11-28T19:11:36.698Z,125.45
2022-11-28T19:14:04.472Z,122.97
2022-11-28T19:16:35.478Z,120.70
2022-11-28T19:19:05.545Z,128.15
2022-11-28T19:21:35.114Z,116.22
2022-11-28T19:24:04.140Z,121.45
2022-11-28T19:26:34.045Z,119.10
2022-11-28T19:29:02.468Z,121.32
2022-11-28T19:31:33.487Z,117.45
2022-11-28T19:34:07.306Z,120.10
2022-11-28T19:36:44.906Z,113.15
2022-11-28T19:39:24.740Z,115.95
2022-11-28T19:41:55.751Z,124.40
2022-11-28T19:44:24.678Z,119.50
2022-11-28T19:46:52.858Z,122.82
2022-11-28T19:49:23.371Z,121.45
2022-11-28T19:51:51.633Z,120.28
2022-11-28T19:54:22.847Z,116.90
2022-11-28T19:56:51.005Z,129.95
2022-11-28T20:11:21.352Z,133.95
2022-11-28T20:13:49.825Z,130.40
2022-11-28T20:16:18.672Z,123.18
2022-11-28T20:18:46.023Z,129.55
2022-11-28T20:21:17.114Z,112.15
2022-11-28T20:23:59.496Z,119.22
2022-11-28T20:26:27.181Z,127.70
2022-11-28T20:28:56.252Z,115.20
2022-11-28T20:31:30.934Z,120.03
2022-11-28T20:33:58.536Z,119.32
2022-11-28T20:36:28.861Z,122.45
2022-11-28T20:38:57.348Z,116.55
2022-11-28T20:41:26.556Z,124.38
2022-11-28T20:43:53.793Z,132.00
2022-11-28T20:46:28.203Z,119.88
2022-11-28T20:48:58.936Z,123.18
2022-11-28T20:51:28.922Z,121.45
2022-11-28T20:54:00.228Z,115.07
2022-11-28T20:56:31.684Z,116.32
2022-11-28T20:59:01.059Z,111.03
2022-11-28T21:01:33.564Z,123.97
2022-11-28T21:04:04.466Z,126.22
2022-11-28T21:06:31.989Z,127.10
2022-11-28T21:08:59.574Z,128.82
2022-11-28T21:14:15.564Z,117.60
2022-11-28T21:16:43.755Z,130.98
2022-11-28T21:19:11.586Z,132.25
2022-11-28T21:21:40.815Z,130.52
2022-11-28T21:24:13.408Z,132.23
2022-11-28T21:26:47.874Z,143.05
2022-11-28T21:29:16.734Z,123.22
2022-11-28T21:31:45.578Z,133.50
2022-11-28T21:34:14.628Z,125.15
2022-11-28T21:36:42.397Z,127.07
2022-11-28T21:39:20.296Z,128.52
2022-11-28T21:41:47.941Z,126.25
2022-11-28T21:44:14.981Z,122.53
2022-11-28T21:46:42.192Z,130.98
2022-11-28T21:49:09.315Z,130.10
2022-11-28T21:51:36.231Z,126.90
2022-11-28T21:54:03.532Z,123.43
2022-11-28T21:56:30.484Z,123.28
2022-11-28T21:58:57.483Z,125.55
2022-11-28T22:01:24.583Z,114.82
2022-11-28T22:03:51.703Z,124.47
2022-11-28T22:06:24.697Z,119.93
2022-11-28T22:11:21.528Z,109.70
2022-11-28T22:13:49.575Z,110.53
2022-11-28T22:16:26.326Z,113.10
2022-11-28T22:18:57.575Z,109.45
2022-11-28T22:24:12.229Z,108.72
2022-11-28T22:26:39.229Z,106.55
2022-11-28T22:29:06.346Z,108.63
2022-11-28T22:31:35.924Z,101.88
2022-11-28T22:34:02.915Z,106.63
2022-11-28T22:36:31.261Z,108.35
2022-11-28T22:38:59.438Z,107.47
2022-11-28T22:41:29.787Z,104.82
2022-11-28T22:44:00.325Z,103.78
2022-11-28T22:46:28.055Z,107.45
2022-11-28T22:48:55.009Z,103.57
2022-11-28T22:51:25.820Z,103.28
2022-11-28T22:53:55.702Z,105.93
2022-11-28T22:56:23.672Z,101.70
2022-11-28T22:58:50.832Z,98.18
2022-11-28T23:01:22.765Z,99.38
2022-11-28T23:03:50.273Z,106.30
2022-11-28T23:06:27.363Z,98.45
2022-11-28T23:08:55.732Z,108.60
2022-11-28T23:11:27.538Z,105.03
2022-11-28T23:13:54.842Z,99.55
2022-11-28T23:16:32.865Z,102.05
2022-11-28T23:19:04.914Z,99.63
2022-11-28T23:21:37.749Z,109.20
2022-11-28T23:24:06.578Z,109.43
2022-11-28T23:26:34.228Z,100.28
2022-11-28T23:29:03.813Z,100.40
2022-11-28T23:31:34.027Z,100.28
2022-11-28T23:34:01.836Z,104.90
2022-11-28T23:36:49.782Z,95.13
2022-11-28T23:52:41.275Z,87.22
2022-11-28T23:55:08.824Z,86.80
2022-11-28T23:57:35.767Z,81.70
